createdAt,value
2018-08-11T00:00:45.781Z,13.33
2018-08-11T00:03:14.444Z,17.50
2018-08-11T00:05:43.110Z,22.10
2018-08-11T00:08:11.416Z,13.83
2018-08-11T00:10:39.590Z,16.17
2018-08-11T00:13:08.112Z,18.23
2018-08-11T00:15:36.382Z,22.00
2018-08-11T00:18:04.786Z,23.40
2018-08-11T00:20:33.492Z,19.50
2018-08-11T00:23:02.048Z,24.50
2018-08-11T00:25:30.663Z,24.87
2018-08-11T00:27:59.314Z,28.20
2018-08-11T00:30:28.532Z,23.40
2018-08-11T00:32:57.928Z,32.50
2018-08-11T00:35:30.058Z,25.97
2018-08-11T00:37:58.645Z,28.53
2018-08-11T00:40:27.784Z,24.50
2018-08-11T00:42:56.448Z,22.70
2018-08-11T00:45:25.478Z,21.20
2018-08-11T00:47:54.119Z,21.57
2018-08-11T00:50:24.851Z,20.13
2018-08-11T00:52:53.789Z,20.20
2018-08-11T00:55:23.950Z,17.67
2018-08-11T00:57:52.494Z,16.10
2018-08-11T01:00:21.344Z,17.07
2018-08-11T01:02:52.447Z,17.00
2018-08-11T01:05:21.385Z,14.00
2018-08-11T01:07:51.334Z,23.33
2018-08-11T01:10:21.155Z,17.67
2018-08-11T01:12:49.650Z,21.90
2018-08-11T01:15:20.175Z,19.93
2018-08-11T01:17:49.538Z,15.97
2018-08-11T01:20:19.996Z,14.97
2018-08-11T01:22:50.822Z,16.80
2018-08-11T01:25:19.357Z,20.37
2018-08-11T01:27:47.914Z,17.20
2018-08-11T01:30:20.926Z,17.20
2018-08-11T01:32:50.477Z,21.80
2018-08-11T01:35:19.212Z,20.47
2018-08-11T01:37:47.990Z,28.80
2018-08-11T01:40:17.071Z,23.13
2018-08-11T01:42:46.437Z,23.73
2018-08-11T01:45:15.521Z,24.30
2018-08-11T01:47:44.308Z,21.67
2018-08-11T01:50:13.961Z,20.67
2018-08-11T01:52:43.892Z,25.17
2018-08-11T01:55:13.822Z,28.40
2018-08-11T01:57:42.485Z,21.40
2018-08-11T02:00:12.879Z,28.67
2018-08-11T02:02:42.351Z,26.70
2018-08-11T02:05:11.411Z,27.43
2018-08-11T02:07:41.209Z,22.47
2018-08-11T02:10:18.169Z,23.17
2018-08-11T02:12:49.185Z,23.70
2018-08-11T02:15:17.762Z,24.70
2018-08-11T02:17:45.960Z,22.50
2018-08-11T02:20:15.512Z,22.67
2018-08-11T02:22:45.179Z,18.10
2018-08-11T02:25:13.902Z,26.03
2018-08-11T02:27:42.647Z,20.10
2018-08-11T02:30:13.619Z,16.33
2018-08-11T02:32:41.885Z,16.47
2018-08-11T02:35:11.416Z,18.13
2018-08-11T02:37:40.586Z,11.87
2018-08-11T02:40:10.944Z,11.00
2018-08-11T02:42:39.321Z,13.80
2018-08-11T02:45:09.521Z,8.97
2018-08-11T02:47:38.064Z,8.37
2018-08-11T02:50:08.597Z,7.80
2018-08-11T02:52:37.379Z,9.13
2018-08-11T02:55:06.115Z,10.70
2018-08-11T02:57:35.718Z,10.90
2018-08-11T03:00:05.173Z,14.23
2018-08-11T03:02:34.603Z,10.63
2018-08-11T03:05:03.791Z,15.13
2018-08-11T03:07:32.248Z,14.40
2018-08-11T03:10:00.458Z,18.03
2018-08-11T03:12:28.967Z,18.73
2018-08-11T03:14:57.441Z,15.60
2018-08-11T03:17:25.584Z,13.43
2018-08-11T03:19:54.120Z,13.30
2018-08-11T03:22:22.587Z,15.00
2018-08-11T03:24:51.149Z,14.73
2018-08-11T03:27:20.162Z,13.17
2018-08-11T03:29:48.653Z,12.47
2018-08-11T03:32:17.317Z,12.57
2018-08-11T03:34:45.620Z,12.57
2018-08-11T03:37:13.844Z,11.70
2018-08-11T03:39:45.133Z,16.60
2018-08-11T03:42:13.667Z,18.70
2018-08-11T03:44:42.251Z,15.73
2018-08-11T03:47:10.665Z,14.20
2018-08-11T03:49:39.557Z,14.07
2018-08-11T03:52:08.140Z,13.67
2018-08-11T03:54:37.753Z,32.83
2018-08-11T03:57:06.298Z,35.77
2018-08-11T03:59:34.873Z,15.87
2018-08-11T04:02:06.652Z,15.80
2018-08-11T04:04:35.573Z,12.10
2018-08-11T04:07:04.286Z,41.40
2018-08-11T04:09:33.141Z,15.23
2018-08-11T04:12:03.424Z,78.30
2018-08-11T04:14:31.797Z,31.07
2018-08-11T04:17:00.366Z,23.47
2018-08-11T04:19:29.031Z,21.97
2018-08-11T04:21:57.814Z,43.73
2018-08-11T04:24:27.599Z,30.60
2018-08-11T04:26:59.893Z,75.13
2018-08-11T04:29:30.937Z,102.67
2018-08-11T04:32:00.104Z,36.57
2018-08-11T04:34:29.004Z,39.93
2018-08-11T04:36:58.729Z,56.73
2018-08-11T04:39:27.210Z,41.80
2018-08-11T04:41:56.590Z,58.80
2018-08-11T04:44:25.995Z,87.70
2018-08-11T04:46:55.004Z,93.00
2018-08-11T04:49:24.239Z,32.67
2018-08-11T04:51:55.570Z,47.97
2018-08-11T04:54:23.971Z,77.77
2018-08-11T04:56:53.244Z,35.80
2018-08-11T04:59:22.163Z,29.87
2018-08-11T05:01:53.219Z,67.43
2018-08-11T05:04:21.705Z,75.03
2018-08-11T05:06:51.958Z,45.97
2018-08-11T05:09:21.297Z,36.33
2018-08-11T05:11:49.900Z,48.17
2018-08-11T05:14:18.858Z,26.03
2018-08-11T05:16:47.776Z,62.67
2018-08-11T05:19:16.677Z,88.90
2018-08-11T05:21:45.245Z,55.30
2018-08-11T05:24:13.701Z,42.77
2018-08-11T05:26:42.355Z,139.77
2018-08-11T05:29:10.871Z,118.30
2018-08-11T05:31:39.699Z,59.37
2018-08-11T05:34:08.353Z,95.63
2018-08-11T05:36:37.679Z,48.10
2018-08-11T05:39:10.598Z,46.53
2018-08-11T05:41:39.215Z,41.77
2018-08-11T05:44:07.974Z,52.57
2018-08-11T05:46:36.777Z,33.97
2018-08-11T05:49:06.394Z,32.37
2018-08-11T05:51:34.893Z,39.87
2018-08-11T05:54:06.826Z,31.07
2018-08-11T05:56:35.468Z,37.90
2018-08-11T05:59:04.007Z,38.67
2018-08-11T06:01:32.584Z,40.47
2018-08-11T06:04:01.163Z,38.03
2018-08-11T06:06:29.781Z,39.60
2018-08-11T06:08:58.310Z,41.23
2018-08-11T06:11:29.493Z,34.93
2018-08-11T06:13:57.953Z,38.70
2018-08-11T06:16:26.531Z,41.07
2018-08-11T06:18:55.996Z,38.00
2018-08-11T06:21:28.712Z,38.43
2018-08-11T06:23:57.536Z,35.63
2018-08-11T06:26:26.113Z,33.90
2018-08-11T06:28:56.964Z,30.97
2018-08-11T06:31:39.630Z,31.37
2018-08-11T06:34:22.143Z,47.60
2018-08-11T06:37:09.965Z,40.93
2018-08-11T06:40:10.623Z,44.10
2018-08-11T06:45:33.803Z,43.40
2018-08-11T06:48:08.426Z,38.43
2018-08-11T06:50:37.334Z,32.50
2018-08-11T06:53:06.215Z,28.20
2018-08-11T06:55:34.839Z,18.13
2018-08-11T06:58:03.406Z,18.90
2018-08-11T07:00:32.024Z,15.63
2018-08-11T07:03:00.665Z,15.00
2018-08-11T07:05:29.251Z,16.77
2018-08-11T07:07:58.666Z,16.60
2018-08-11T07:10:27.386Z,18.03
2018-08-11T07:13:01.408Z,23.13
2018-08-11T07:15:29.941Z,24.50
2018-08-11T07:17:58.710Z,19.73
2018-08-11T07:20:27.182Z,17.57
2018-08-11T07:22:55.655Z,21.37
2018-08-11T07:25:24.193Z,18.40
2018-08-11T07:27:52.652Z,17.80
2018-08-11T07:30:25.968Z,16.40
2018-08-11T07:32:55.723Z,18.97
2018-08-11T07:35:27.134Z,19.23
2018-08-11T07:37:55.652Z,20.03
2018-08-11T07:40:24.293Z,20.80
2018-08-11T07:42:52.996Z,20.77
2018-08-11T07:45:21.495Z,22.83
2018-08-11T07:47:49.906Z,19.83
2018-08-11T07:50:18.474Z,14.07
2018-08-11T07:52:47.002Z,14.93
2018-08-11T07:55:15.482Z,16.87
2018-08-11T07:57:43.901Z,16.70
2018-08-11T08:00:12.811Z,15.33
2018-08-11T08:02:42.400Z,16.57
2018-08-11T08:05:11.858Z,19.40
2018-08-11T08:07:41.501Z,13.37
2018-08-11T08:10:10.132Z,12.63
2018-08-11T08:12:39.343Z,13.10
2018-08-11T08:15:07.853Z,13.00
2018-08-11T08:17:36.568Z,12.80
2018-08-11T08:20:05.697Z,10.80
2018-08-11T08:22:36.444Z,9.90
2018-08-11T08:25:07.226Z,10.90
2018-08-11T08:27:36.024Z,12.10
2018-08-11T08:30:11.112Z,11.20
2018-08-11T08:32:40.239Z,17.70
2018-08-11T08:35:09.107Z,10.53
2018-08-11T08:37:38.231Z,11.30
2018-08-11T08:40:07.173Z,14.90
2018-08-11T08:42:35.824Z,10.30
2018-08-11T08:45:06.353Z,10.23
2018-08-11T08:47:35.731Z,11.47
2018-08-11T08:50:05.336Z,8.80
2018-08-11T08:52:33.977Z,15.03
2018-08-11T08:55:02.578Z,9.90
2018-08-11T08:57:31.065Z,9.67
2018-08-11T08:59:59.625Z,9.50
2018-08-11T09:02:27.848Z,11.80
2018-08-11T09:04:57.073Z,10.37
2018-08-11T09:07:25.676Z,11.57
2018-08-11T09:09:54.160Z,11.73
2018-08-11T09:12:23.827Z,12.00
2018-08-11T09:14:52.790Z,10.60
2018-08-11T09:17:22.292Z,11.50
2018-08-11T09:19:50.849Z,10.50
2018-08-11T09:22:21.709Z,10.83
2018-08-11T09:24:50.150Z,9.20
2018-08-11T09:27:18.509Z,9.33
2018-08-11T09:29:46.682Z,11.20
2018-08-11T09:32:15.136Z,5.03
2018-08-11T09:34:44.410Z,3.07
2018-08-11T09:37:12.896Z,2.57
2018-08-11T09:39:41.431Z,2.60
2018-08-11T09:42:10.046Z,2.40
2018-08-11T09:44:40.411Z,4.00
2018-08-11T09:47:08.919Z,6.03
2018-08-11T09:49:37.423Z,4.03
2018-08-11T09:52:06.578Z,4.90
2018-08-11T09:54:35.066Z,5.47
2018-08-11T09:57:03.594Z,3.93
2018-08-11T09:59:32.026Z,6.20
2018-08-11T10:02:05.857Z,4.40
2018-08-11T10:04:33.995Z,4.47
2018-08-11T10:07:02.481Z,4.40
2018-08-11T10:09:31.147Z,6.47
2018-08-11T10:12:00.629Z,4.40
2018-08-11T10:14:29.198Z,5.20
2018-08-11T10:16:57.708Z,4.60
2018-08-11T10:19:26.453Z,4.27
2018-08-11T10:21:55.081Z,5.83
2018-08-11T10:24:23.599Z,3.60
2018-08-11T10:26:52.202Z,4.50
2018-08-11T10:29:23.414Z,6.90
2018-08-11T10:31:54.719Z,7.57
2018-08-11T10:34:23.194Z,7.57
2018-08-11T10:36:51.672Z,5.47
2018-08-11T10:39:21.430Z,5.57
2018-08-11T10:41:49.881Z,6.33
2018-08-11T10:44:18.417Z,4.67
2018-08-11T10:46:46.868Z,7.20
2018-08-11T10:49:15.356Z,4.77
2018-08-11T10:51:43.829Z,7.50
2018-08-11T10:54:11.952Z,8.80
2018-08-11T10:56:40.468Z,5.87
2018-08-11T10:59:08.930Z,9.40
2018-08-11T11:01:37.363Z,6.10
2018-08-11T11:04:08.526Z,5.93
2018-08-11T11:06:36.662Z,6.30
2018-08-11T11:09:08.094Z,5.50
2018-08-11T11:11:37.247Z,6.23
2018-08-11T11:14:05.932Z,4.67
2018-08-11T11:16:34.890Z,10.33
2018-08-11T11:19:07.451Z,10.53
2018-08-11T11:21:36.028Z,3.27
2018-08-11T11:24:04.566Z,2.73
2018-08-11T11:26:34.815Z,2.40
2018-08-11T11:29:03.403Z,6.80
2018-08-11T11:31:31.848Z,3.37
2018-08-11T11:34:00.303Z,2.30
2018-08-11T11:36:28.730Z,4.20
2018-08-11T11:38:57.141Z,2.70
2018-08-11T11:41:25.610Z,2.80
2018-08-11T11:43:56.100Z,3.37
2018-08-11T11:46:24.608Z,3.17
2018-08-11T11:48:53.076Z,2.60
2018-08-11T11:51:23.452Z,3.70
2018-08-11T11:53:53.293Z,6.73
2018-08-11T11:56:21.764Z,4.73
2018-08-11T11:58:50.227Z,4.43
2018-08-11T12:01:20.387Z,3.93
2018-08-11T12:03:48.856Z,4.50
2018-08-11T12:06:17.455Z,3.90
2018-08-11T12:08:47.778Z,4.70
2018-08-11T12:11:16.246Z,12.00
2018-08-11T12:13:44.759Z,4.90
2018-08-11T12:16:13.254Z,4.00
2018-08-11T12:18:41.734Z,5.97
2018-08-11T12:21:10.201Z,4.77
2018-08-11T12:23:38.625Z,4.60
2018-08-11T12:26:08.266Z,3.30
2018-08-11T12:28:36.815Z,5.90
2018-08-11T12:31:05.528Z,3.33
2018-08-11T12:33:35.081Z,4.50
2018-08-11T12:36:03.233Z,3.20
2018-08-11T12:38:31.659Z,5.60
2018-08-11T12:41:00.144Z,3.17
2018-08-11T12:43:28.837Z,3.77
2018-08-11T12:45:57.341Z,7.30
2018-08-11T12:48:25.685Z,7.87
2018-08-11T12:50:56.784Z,4.00
2018-08-11T12:53:25.245Z,4.37
2018-08-11T12:55:53.709Z,10.13
2018-08-11T12:58:22.770Z,4.10
2018-08-11T13:00:51.359Z,7.43
2018-08-11T13:03:21.914Z,3.53
2018-08-11T13:05:50.428Z,4.93
2018-08-11T13:08:21.169Z,6.13
2018-08-11T13:10:49.708Z,4.83
2018-08-11T13:13:18.212Z,4.20
2018-08-11T13:15:46.693Z,3.93
2018-08-11T13:18:15.231Z,5.13
2018-08-11T13:20:43.395Z,5.13
2018-08-11T13:23:11.903Z,4.33
2018-08-11T13:25:40.451Z,4.00
2018-08-11T13:28:08.938Z,6.33
2018-08-11T13:30:37.403Z,3.47
2018-08-11T13:33:06.536Z,4.20
2018-08-11T13:35:34.969Z,11.83
2018-08-11T13:38:03.486Z,6.00
2018-08-11T13:40:31.917Z,11.10
2018-08-11T13:43:00.441Z,2.80
2018-08-11T13:45:28.909Z,3.17
2018-08-11T13:47:57.327Z,3.57
2018-08-11T13:50:27.299Z,5.47
2018-08-11T13:52:55.787Z,3.30
2018-08-11T13:55:24.295Z,4.37
2018-08-11T13:57:54.247Z,5.03
2018-08-11T14:00:22.713Z,5.23
2018-08-11T14:02:51.135Z,4.03
2018-08-11T14:05:20.231Z,6.63
2018-08-11T14:07:49.521Z,4.50
2018-08-11T14:10:18.007Z,5.73
2018-08-11T14:12:46.470Z,5.03
2018-08-11T14:15:14.997Z,3.80
2018-08-11T14:17:45.429Z,5.87
2018-08-11T14:20:13.922Z,2.87
2018-08-11T14:22:43.109Z,2.83
2018-08-11T14:25:11.583Z,5.40
2018-08-11T14:27:40.022Z,2.70
2018-08-11T14:30:11.443Z,2.80
2018-08-11T14:32:45.412Z,3.03
2018-08-11T14:35:13.852Z,2.60
2018-08-11T14:37:42.382Z,6.10
2018-08-11T14:40:11.928Z,5.77
2018-08-11T14:42:42.014Z,2.93
2018-08-11T14:45:10.504Z,2.53
2018-08-11T14:47:38.979Z,3.23
2018-08-11T14:50:09.032Z,3.93
2018-08-11T14:52:37.564Z,4.10
2018-08-11T14:55:06.662Z,3.30
2018-08-11T14:57:35.171Z,3.60
2018-08-11T15:00:05.095Z,5.07
2018-08-11T15:02:33.557Z,4.40
2018-08-11T15:05:02.003Z,4.50
2018-08-11T15:07:31.804Z,2.60
2018-08-11T15:10:00.261Z,3.70
2018-08-11T15:12:28.726Z,3.07
2018-08-11T15:14:57.468Z,5.57
2018-08-11T15:17:25.973Z,1.87
2018-08-11T15:19:54.436Z,5.00
2018-08-11T15:22:24.821Z,2.83
2018-08-11T15:24:53.292Z,2.83
2018-08-11T15:27:21.810Z,3.23
2018-08-11T15:29:50.972Z,2.50
2018-08-11T15:32:19.481Z,3.30
2018-08-11T15:34:48.293Z,4.30
2018-08-11T15:37:16.729Z,2.63
2018-08-11T15:39:46.198Z,2.50
2018-08-11T15:42:14.607Z,2.47
2018-08-11T15:44:42.846Z,2.40
2018-08-11T15:47:11.267Z,3.40
2018-08-11T15:49:39.802Z,4.83
2018-08-11T15:52:08.907Z,25.20
2018-08-11T15:54:37.442Z,36.33
2018-08-11T15:57:05.970Z,30.17
2018-08-11T15:59:34.394Z,6.73
2018-08-11T16:02:02.909Z,3.27
2018-08-11T16:04:31.292Z,3.50
2018-08-11T16:06:59.785Z,5.10
2018-08-11T16:09:28.221Z,3.00
2018-08-11T16:11:56.711Z,2.60
2018-08-11T16:14:25.159Z,2.50
2018-08-11T16:16:53.460Z,1.77
2018-08-11T16:19:21.918Z,4.13
2018-08-11T16:21:51.799Z,1.90
2018-08-11T16:24:20.338Z,4.60
2018-08-11T16:26:49.131Z,3.27
2018-08-11T16:29:17.581Z,5.97
2018-08-11T16:31:46.097Z,6.60
2018-08-11T16:34:14.519Z,4.13
2018-08-11T16:36:42.997Z,2.20
2018-08-11T16:39:11.480Z,4.03
2018-08-11T16:41:40.365Z,4.50
2018-08-11T16:44:08.917Z,5.23
2018-08-11T16:46:39.558Z,4.60
2018-08-11T16:49:07.974Z,2.77
2018-08-11T16:51:36.493Z,4.60
2018-08-11T16:54:06.043Z,1.93
2018-08-11T16:56:35.546Z,2.23
2018-08-11T16:59:03.699Z,2.40
2018-08-11T17:01:32.142Z,5.53
2018-08-11T17:04:04.363Z,3.43
2018-08-11T17:06:32.821Z,2.90
2018-08-11T17:09:01.288Z,1.97
2018-08-11T17:11:30.757Z,1.80
2018-08-11T17:14:02.425Z,1.60
2018-08-11T17:16:30.809Z,3.13
2018-08-11T17:18:59.261Z,2.07
2018-08-11T17:21:29.991Z,2.10
2018-08-11T17:23:58.735Z,3.27
2018-08-11T17:26:27.169Z,2.20
2018-08-11T17:28:57.547Z,1.80
2018-08-11T17:31:25.744Z,3.27
2018-08-11T17:33:54.175Z,2.57
2018-08-11T17:36:23.583Z,2.00
2018-08-11T17:38:52.161Z,1.90
2018-08-11T17:41:20.632Z,2.23
2018-08-11T17:43:49.088Z,3.77
2018-08-11T17:46:19.876Z,2.10
2018-08-11T17:48:48.684Z,1.90
2018-08-11T17:51:17.205Z,2.20
2018-08-11T17:53:47.332Z,4.17
2018-08-11T17:56:16.152Z,3.80
2018-08-11T17:58:44.639Z,1.70
2018-08-11T18:01:13.236Z,2.87
2018-08-11T18:03:42.823Z,2.50
2018-08-11T18:06:11.031Z,2.53
2018-08-11T18:08:39.531Z,2.20
2018-08-11T18:11:09.204Z,2.80
2018-08-11T18:13:37.667Z,3.07
2018-08-11T18:16:06.265Z,3.37
2018-08-11T18:18:34.541Z,1.50
2018-08-11T18:21:05.125Z,2.97
2018-08-11T18:23:33.674Z,4.03
2018-08-11T18:26:02.289Z,11.47
2018-08-11T18:28:31.667Z,1.70
2018-08-11T18:30:59.833Z,2.57
2018-08-11T18:33:28.322Z,1.87
2018-08-11T18:35:57.185Z,4.20
2018-08-11T18:38:25.696Z,2.13
2018-08-11T18:40:54.169Z,2.57
2018-08-11T18:43:22.481Z,1.87
2018-08-11T18:45:54.885Z,2.10
2018-08-11T18:48:23.457Z,2.63
2018-08-11T18:50:51.601Z,2.03
2018-08-11T18:53:21.032Z,2.70
2018-08-11T18:55:49.779Z,2.10
2018-08-11T18:58:18.293Z,2.07
2018-08-11T19:00:46.816Z,1.97
2018-08-11T19:03:16.879Z,8.93
2018-08-11T19:05:45.344Z,2.70
2018-08-11T19:08:13.966Z,3.03
2018-08-11T19:10:42.567Z,2.77
2018-08-11T19:13:15.065Z,2.97
2018-08-11T19:15:43.476Z,2.60
2018-08-11T19:18:11.989Z,3.80
2018-08-11T19:20:41.657Z,3.03
2018-08-11T19:23:10.881Z,2.77
2018-08-11T19:25:39.236Z,3.20
2018-08-11T19:28:07.731Z,3.07
2018-08-11T19:30:40.405Z,3.73
2018-08-11T19:33:09.004Z,2.50
2018-08-11T19:35:37.525Z,4.63
2018-08-11T19:38:06.495Z,2.57
2018-08-11T19:40:38.824Z,2.43
2018-08-11T19:43:07.735Z,4.73
2018-08-11T19:45:36.960Z,3.93
2018-08-11T19:48:05.770Z,3.97
2018-08-11T19:50:35.024Z,3.20
2018-08-11T19:53:03.648Z,2.23
2018-08-11T19:55:32.268Z,2.60
2018-08-11T19:58:01.765Z,2.87
2018-08-11T20:00:30.392Z,3.93
2018-08-11T20:02:58.924Z,7.90
2018-08-11T20:05:28.514Z,4.10
2018-08-11T20:07:59.252Z,4.23
2018-08-11T20:10:28.078Z,4.10
2018-08-11T20:12:56.676Z,6.23
2018-08-11T20:15:26.937Z,5.03
2018-08-11T20:17:55.130Z,6.43
2018-08-11T20:20:24.184Z,6.83
2018-08-11T20:22:52.469Z,2.67
2018-08-11T20:25:21.110Z,3.63
2018-08-11T20:27:50.185Z,3.57
2018-08-11T20:30:18.723Z,5.37
2018-08-11T20:32:48.590Z,5.87
2018-08-11T20:35:17.672Z,4.60
2018-08-11T20:37:46.249Z,3.30
2018-08-11T20:40:14.448Z,3.33
2018-08-11T20:42:47.371Z,4.03
2018-08-11T20:45:15.880Z,2.60
2018-08-11T20:47:44.528Z,3.30
2018-08-11T20:50:12.840Z,5.40
2018-08-11T20:52:41.571Z,3.70
2018-08-11T20:55:10.230Z,4.57
2018-08-11T20:57:38.940Z,5.50
2018-08-11T21:00:11.725Z,3.63
2018-08-11T21:02:40.818Z,5.53
2018-08-11T21:05:12.036Z,4.03
2018-08-11T21:07:40.610Z,4.00
2018-08-11T21:10:14.784Z,3.57
2018-08-11T21:12:43.929Z,4.63
2018-08-11T21:15:13.127Z,3.17
2018-08-11T21:17:42.637Z,3.10
2018-08-11T21:20:13.055Z,5.33
2018-08-11T21:22:41.269Z,3.30
2018-08-11T21:25:10.822Z,5.23
2018-08-11T21:27:41.685Z,4.70
2018-08-11T21:30:12.686Z,4.33
2018-08-11T21:32:41.572Z,6.03
2018-08-11T21:35:10.548Z,4.40
2018-08-11T21:37:39.100Z,3.00
2018-08-11T21:40:14.538Z,3.30
2018-08-11T21:42:43.362Z,5.73
2018-08-11T21:45:12.972Z,4.40
2018-08-11T21:47:43.406Z,3.63
2018-08-11T21:50:11.910Z,6.60
2018-08-11T21:52:40.274Z,4.40
2018-08-11T21:55:12.679Z,5.37
2018-08-11T21:57:40.800Z,3.60
2018-08-11T22:00:40.738Z,4.53
2018-08-11T22:03:09.473Z,4.37
2018-08-11T22:05:37.912Z,6.73
2018-08-11T22:08:06.396Z,5.83
2018-08-11T22:10:37.902Z,4.50
2018-08-11T22:13:06.481Z,10.07
2018-08-11T22:15:35.083Z,6.60
2018-08-11T22:18:05.229Z,4.13
2018-08-11T22:20:35.255Z,5.73
2018-08-11T22:23:04.781Z,5.57
2018-08-11T22:25:33.267Z,4.37
2018-08-11T22:28:03.958Z,4.07
2018-08-11T22:30:32.425Z,5.40
2018-08-11T22:33:01.025Z,6.57
2018-08-11T22:35:30.232Z,5.47
2018-08-11T22:37:58.928Z,6.00
2018-08-11T22:40:27.511Z,5.70
2018-08-11T22:42:55.657Z,7.17
2018-08-11T22:45:24.313Z,3.97
2018-08-11T22:47:53.019Z,7.70
2018-08-11T22:50:21.496Z,5.03
2018-08-11T22:52:53.417Z,6.23
2018-08-11T22:55:21.895Z,5.27
2018-08-11T22:57:50.381Z,9.03
2018-08-11T23:00:20.655Z,4.90
2018-08-11T23:02:55.315Z,5.97
2018-08-11T23:05:23.960Z,6.10
2018-08-11T23:07:52.429Z,6.20
2018-08-11T23:10:22.986Z,4.90
2018-08-11T23:12:52.065Z,15.43
2018-08-11T23:15:20.330Z,9.07
2018-08-11T23:17:50.459Z,5.00
2018-08-11T23:20:19.036Z,5.07
2018-08-11T23:22:47.497Z,3.77
2018-08-11T23:25:16.139Z,5.70
2018-08-11T23:27:45.487Z,6.33
2018-08-11T23:30:15.940Z,7.20
2018-08-11T23:32:44.844Z,8.03
2018-08-11T23:35:13.813Z,5.83
2018-08-11T23:37:42.984Z,7.73
2018-08-11T23:40:12.012Z,8.80
2018-08-11T23:42:40.509Z,6.47
2018-08-11T23:45:13.296Z,4.90
2018-08-11T23:47:42.425Z,6.37
2018-08-11T23:50:11.658Z,5.87
2018-08-11T23:52:42.356Z,6.60
2018-08-11T23:55:11.985Z,7.50
2018-08-11T23:57:40.511Z,8.43
